createdAt,value
2018-09-07T00:04:41.991Z,96.40
2018-09-07T00:09:46.699Z,105.43
2018-09-07T00:14:50.198Z,111.70
2018-09-07T00:19:53.253Z,107.23
2018-09-07T00:24:56.290Z,100.40
2018-09-07T00:29:59.298Z,112.00
2018-09-07T00:35:02.329Z,115.10
2018-09-07T00:40:05.410Z,98.20
2018-09-07T00:45:09.955Z,109.67
2018-09-07T00:50:16.768Z,101.50
2018-09-07T00:55:20.710Z,94.80
2018-09-07T01:00:24.086Z,97.60
2018-09-07T01:05:27.102Z,88.37
2018-09-07T01:10:30.148Z,87.10
2018-09-07T01:15:33.215Z,84.53
2018-09-07T01:20:36.262Z,73.07
2018-09-07T01:25:41.636Z,72.53
2018-09-07T01:30:47.081Z,72.03
2018-09-07T01:35:50.299Z,79.60
2018-09-07T01:40:53.328Z,60.93
2018-09-07T01:45:56.333Z,60.73
2018-09-07T01:50:59.353Z,64.40
2018-09-07T01:56:03.565Z,62.57
2018-09-07T02:01:06.581Z,66.33
2018-09-07T02:06:13.545Z,54.80
2018-09-07T02:11:17.615Z,49.67
2018-09-07T02:16:21.593Z,47.97
2018-09-07T02:21:24.669Z,37.00
2018-09-07T02:26:27.702Z,38.07
2018-09-07T02:31:31.645Z,36.43
2018-09-07T02:36:37.449Z,31.00
2018-09-07T02:41:42.456Z,31.43
2018-09-07T02:46:47.199Z,33.57
2018-09-07T02:51:50.316Z,29.90
2018-09-07T02:56:55.525Z,23.03
2018-09-07T03:01:58.536Z,31.07
2018-09-07T03:07:01.609Z,26.07
2018-09-07T03:12:05.696Z,27.40
2018-09-07T03:17:16.261Z,26.00
2018-09-07T03:22:19.731Z,19.00
2018-09-07T03:27:22.767Z,15.67
2018-09-07T03:32:25.815Z,14.40
2018-09-07T03:37:28.862Z,12.80
2018-09-07T03:42:34.671Z,11.63
2018-09-07T03:47:37.765Z,13.33
2018-09-07T03:52:47.868Z,11.93
2018-09-07T03:57:52.786Z,12.43
2018-09-07T04:02:55.991Z,10.03
2018-09-07T04:07:59.053Z,13.00
2018-09-07T04:13:03.493Z,12.33
2018-09-07T04:18:06.890Z,13.57
2018-09-07T04:23:14.397Z,10.63
2018-09-07T04:28:19.625Z,12.87
2018-09-07T04:33:22.649Z,10.10
2018-09-07T04:38:25.840Z,12.20
2018-09-07T04:43:28.914Z,12.80
2018-09-07T04:48:31.975Z,15.57
2018-09-07T04:53:35.617Z,14.60
2018-09-07T04:58:40.593Z,14.43
2018-09-07T05:03:48.975Z,12.83
2018-09-07T05:08:52.014Z,16.63
2018-09-07T05:13:55.083Z,17.70
2018-09-07T05:18:58.123Z,13.10
2018-09-07T05:24:03.250Z,17.23
2018-09-07T05:29:06.554Z,17.70
2018-09-07T05:34:15.243Z,16.53
2018-09-07T05:39:19.185Z,12.97
2018-09-07T05:44:22.197Z,13.80
2018-09-07T05:49:25.206Z,8.50
2018-09-07T05:54:28.225Z,11.20
2018-09-07T05:59:31.933Z,8.80
2018-09-07T06:04:36.885Z,6.63
2018-09-07T06:09:45.999Z,14.67
2018-09-07T06:14:49.638Z,7.80
2018-09-07T06:19:52.623Z,6.27
2018-09-07T06:24:55.628Z,9.17
2018-09-07T06:29:58.669Z,11.40
2018-09-07T06:35:02.538Z,9.53
2018-09-07T06:40:06.791Z,14.23
2018-09-07T06:45:16.168Z,8.63
2018-09-07T06:50:19.711Z,7.37
2018-09-07T06:55:22.846Z,8.90
2018-09-07T07:00:25.859Z,9.23
2018-09-07T07:05:28.940Z,10.47
2018-09-07T07:10:33.926Z,12.97
2018-09-07T07:15:37.246Z,14.53
2018-09-07T07:20:48.630Z,13.70
2018-09-07T07:25:51.633Z,14.30
2018-09-07T07:30:54.662Z,16.93
2018-09-07T07:35:57.691Z,24.83
2018-09-07T07:41:00.702Z,27.80
2018-09-07T07:46:03.723Z,26.83
2018-09-07T07:51:06.777Z,32.50
2018-09-07T07:56:14.893Z,32.00
2018-09-07T08:01:21.124Z,36.43
2018-09-07T08:06:24.225Z,28.13
2018-09-07T08:11:27.236Z,32.77
2018-09-07T08:16:31.361Z,39.40
2018-09-07T08:21:36.935Z,30.40
2018-09-07T08:26:44.596Z,25.47
2018-09-07T08:31:50.575Z,30.43
2018-09-07T08:36:53.806Z,37.77
2018-09-07T08:41:56.906Z,28.40
2018-09-07T08:47:00.013Z,26.00
2018-09-07T08:52:03.142Z,21.80
2018-09-07T08:57:06.237Z,22.33
2018-09-07T09:02:17.710Z,24.80
2018-09-07T09:07:24.182Z,28.30
2018-09-07T09:12:27.256Z,18.90
2018-09-07T09:17:30.286Z,24.83
2018-09-07T09:22:33.406Z,26.80
2018-09-07T09:27:50.288Z,35.83
2018-09-07T09:32:56.662Z,31.60
2018-09-07T09:37:59.614Z,37.43
2018-09-07T09:43:02.718Z,28.13
2018-09-07T09:48:05.744Z,18.57
2018-09-07T09:53:19.599Z,20.20
2018-09-07T09:58:23.943Z,23.53
2018-09-07T10:03:32.785Z,21.23
2018-09-07T10:08:39.242Z,30.03
2018-09-07T10:13:47.493Z,25.30
2018-09-07T10:18:52.990Z,30.43
2018-09-07T10:23:56.010Z,24.10
2018-09-07T10:28:59.041Z,21.40
2018-09-07T10:34:02.133Z,26.43
2018-09-07T10:39:07.988Z,19.63
2018-09-07T10:44:17.645Z,17.07
2018-09-07T10:49:21.885Z,18.67
2018-09-07T10:54:26.722Z,18.00
2018-09-07T10:59:29.954Z,16.80
2018-09-07T11:04:33.115Z,16.77
2018-09-07T11:09:39.750Z,14.43
2018-09-07T11:14:46.802Z,16.43
2018-09-07T11:19:52.405Z,18.83
2018-09-07T11:24:56.825Z,17.40
2018-09-07T11:30:01.704Z,15.67
2018-09-07T11:35:05.826Z,16.80
2018-09-07T11:40:14.693Z,19.60
2018-09-07T11:45:19.882Z,20.13
2018-09-07T11:50:24.594Z,21.07
2018-09-07T11:55:28.852Z,17.37
2018-09-07T12:00:31.879Z,12.37
2018-09-07T12:05:35.042Z,14.67
2018-09-07T12:10:38.387Z,10.27
2018-09-07T12:15:45.006Z,15.40
2018-09-07T12:20:50.130Z,10.90
2018-09-07T12:25:53.298Z,11.53
2018-09-07T12:30:58.699Z,15.37
2018-09-07T12:36:05.580Z,13.23
2018-09-07T12:41:09.821Z,14.43
2018-09-07T12:46:12.964Z,11.67
2018-09-07T12:51:16.496Z,7.67
2018-09-07T12:56:23.498Z,7.30
2018-09-07T13:01:29.257Z,8.77
2018-09-07T13:06:35.317Z,9.30
2018-09-07T13:11:38.419Z,4.60
2018-09-07T13:16:42.601Z,7.60
2018-09-07T13:21:45.701Z,4.53
2018-09-07T13:26:48.817Z,7.87
2018-09-07T13:31:56.916Z,3.67
2018-09-07T13:37:02.226Z,10.77
2018-09-07T13:42:05.411Z,5.70
2018-09-07T13:47:08.523Z,3.50
2018-09-07T13:52:13.842Z,14.97
2018-09-07T13:57:17.161Z,9.43
2018-09-07T14:02:20.308Z,6.47
2018-09-07T14:07:23.482Z,5.53
2018-09-07T14:12:27.009Z,3.83
2018-09-07T14:17:30.937Z,4.30
2018-09-07T14:22:34.006Z,2.40
2018-09-07T14:27:37.062Z,18.37
2018-09-07T14:32:40.135Z,11.10
2018-09-07T14:37:44.623Z,3.87
2018-09-07T14:42:49.793Z,9.63
2018-09-07T14:47:53.703Z,2.20
2018-09-07T14:52:59.414Z,3.00
2018-09-07T14:58:04.055Z,4.80
2018-09-07T15:03:07.643Z,7.10
2018-09-07T15:08:12.118Z,4.33
2018-09-07T15:13:15.909Z,8.50
2018-09-07T15:18:19.986Z,6.10
2018-09-07T15:23:28.853Z,5.83
2018-09-07T15:28:34.635Z,8.07
2018-09-07T15:33:39.331Z,7.80
2018-09-07T15:38:42.432Z,4.73
2018-09-07T15:43:45.486Z,6.70
2018-09-07T15:48:48.595Z,6.73
2018-09-07T15:54:01.294Z,4.50
2018-09-07T15:59:06.394Z,4.63
2018-09-07T16:04:09.819Z,2.83
2018-09-07T16:09:12.850Z,7.07
2018-09-07T16:14:15.909Z,9.30
2018-09-07T16:19:18.956Z,2.80
2018-09-07T16:24:22.006Z,10.07
2018-09-07T16:29:29.704Z,2.83
2018-09-07T16:34:34.854Z,11.00
2018-09-07T16:39:38.555Z,4.23
2018-09-07T16:44:41.698Z,6.83
2018-09-07T16:49:44.754Z,8.43
2018-09-07T16:54:47.782Z,7.30
2018-09-07T16:59:50.879Z,5.23
2018-09-07T17:05:00.793Z,1.90
2018-09-07T17:10:06.907Z,1.50
2018-09-07T17:15:10.034Z,7.73
2018-09-07T17:20:13.070Z,2.30
2018-09-07T17:25:16.140Z,7.20
2018-09-07T17:30:19.270Z,5.03
2018-09-07T17:35:22.490Z,6.23
2018-09-07T17:40:29.097Z,8.30
2018-09-07T17:45:33.303Z,3.77
2018-09-07T17:50:37.095Z,4.83
2018-09-07T17:55:40.200Z,7.57
2018-09-07T18:00:43.246Z,6.23
2018-09-07T18:05:49.690Z,4.60
2018-09-07T18:10:54.961Z,16.67
2018-09-07T18:15:59.201Z,2.20
2018-09-07T18:21:04.926Z,3.13
2018-09-07T18:26:09.640Z,7.10
2018-09-07T18:31:12.653Z,8.00
2018-09-07T18:36:17.838Z,4.07
2018-09-07T18:41:26.655Z,30.47
2018-09-07T18:46:34.458Z,8.43
2018-09-07T18:51:40.259Z,2.67
2018-09-07T18:56:45.391Z,5.00
2018-09-07T19:01:49.595Z,11.87
2018-09-07T19:06:54.306Z,4.87
2018-09-07T19:11:59.431Z,2.30
2018-09-07T19:17:03.392Z,13.73
2018-09-07T19:22:06.414Z,3.43
2018-09-07T19:27:09.785Z,1.00
2018-09-07T19:32:12.860Z,0.83
2018-09-07T19:37:16.634Z,2.03
2018-09-07T19:42:22.046Z,3.03
2018-09-07T19:47:26.640Z,1.60
2018-09-07T19:52:30.049Z,1.63
2018-09-07T19:57:33.961Z,4.20
2018-09-07T20:02:36.990Z,1.83
2018-09-07T20:07:40.094Z,1.23
2018-09-07T20:12:43.174Z,1.17
2018-09-07T20:17:47.682Z,2.30
2018-09-07T20:22:54.134Z,0.80
2018-09-07T20:27:59.272Z,4.53
2018-09-07T20:33:03.262Z,4.10
2018-09-07T20:38:06.291Z,2.40
2018-09-07T20:43:09.358Z,1.80
2018-09-07T20:48:12.543Z,0.70
2018-09-07T20:53:16.362Z,2.10
2018-09-07T20:58:22.471Z,1.23
2018-09-07T21:03:27.751Z,1.07
2018-09-07T21:08:31.118Z,4.13
2018-09-07T21:13:34.654Z,7.03
2018-09-07T21:18:37.701Z,0.73
2018-09-07T21:23:40.750Z,1.33
2018-09-07T21:28:45.067Z,1.47
2018-09-07T21:33:50.841Z,0.70
2018-09-07T21:38:58.423Z,3.43
2018-09-07T21:44:02.800Z,4.90
2018-09-07T21:49:07.926Z,0.90
2018-09-07T21:54:11.000Z,0.80
2018-09-07T21:59:14.056Z,0.80
2018-09-07T22:04:17.095Z,0.60
2018-09-07T22:09:22.975Z,1.80
2018-09-07T22:14:27.525Z,1.63
2018-09-07T22:19:31.731Z,1.30
2018-09-07T22:24:34.894Z,0.70
2018-09-07T22:29:38.187Z,4.17
2018-09-07T22:34:41.616Z,1.57
2018-09-07T22:39:44.715Z,1.73
2018-09-07T22:44:48.000Z,1.00
2018-09-07T22:49:54.258Z,0.80
2018-09-07T22:54:58.483Z,1.23
2018-09-07T23:00:02.530Z,0.83
2018-09-07T23:05:05.656Z,4.43
2018-09-07T23:10:08.842Z,7.23
2018-09-07T23:15:11.873Z,0.93
2018-09-07T23:20:14.928Z,1.17
2018-09-07T23:25:19.310Z,1.43
2018-09-07T23:30:25.563Z,1.00
2018-09-07T23:35:30.079Z,2.27
2018-09-07T23:40:33.805Z,1.43
2018-09-07T23:45:36.869Z,9.10
2018-09-07T23:50:39.913Z,1.53
2018-09-07T23:55:42.945Z,4.50
